City's sites:

title views votes rating creation
?never been here 387 12 (3.08)  2010-02-07
?pastel negro 607 14 (2.50)  2010-02-07
?dizzy 272 8 (3.38)  2010-02-07
?two pictures from my desktop 868 16 (3.69)  2010-02-09
?broken clock realizes he is the last object left in the ... 436 10 (3.20)  2010-02-09
?heroes of old 590 19 (3.74)  2010-02-09
?mr. price 440 8 (3.25)  2010-02-09
?Music I Like - Part 1 619 10 (3.60)  2010-02-10
?Music I Like - Part 2 389 13 (3.54)  2010-02-10
?Music I Like - Part 3 544 13 (3.69)  2010-02-10
?Music I Like - Part 4 425 5 (3.20)  2010-02-10
?intense 538 9 (3.78)  2010-02-10
?oh SNAP 783 9 (3.22)  2010-02-10
?Music I Like - Part 5 547 9 (3.56)  2010-02-10
?SignlanguageTMND 391 14 (3.86)  2010-02-10
?lol internet (refresh) 608 6 (3.17)  2010-02-12
?Dumbeldore kills snape! 3,338 67 (4.03)  2010-02-12
?prairiedogeric10 tribute site 677 23 (3.96)  2010-02-13
?Legolewdite fan club 1,297 38 (3.87)  2010-02-13
?Connery retires 412 13 (3.85)  2010-02-13
?TOURNEY4: lol internet 547 7 (2.43)  2010-02-15
?Speed Deemon 1,000 23 (3.74)  2010-02-23
?Tribute: ASSCOCKredux 1,657 64 (3.91)  2010-02-23
?some light jazz with Robert De Niro 863 12 (3.50)  2010-02-23
?In What Language 1,454 34 (3.74)  2010-02-24
?go go go go go go go go go go go go go go go go ... 2,071 23 (3.74)  2010-02-24
?FEARCONDOM'S FAMILY Q U I L T 611 11 (3.55)  2010-02-24
?TEST 777 19 (3.84)  2010-02-26
?....someday, oh dream maker DUNANANANAN... 5,111 148 (3.96)  2010-02-28
?DOUGH FUNNIE HOMO DICKS 638 12 (3.58)  2010-03-01
?Using a concrete bricK 589 17 (3.82)  2010-03-01
?I had sex with a Kayan Tribe woman, little help plea... 979 11 (3.36)  2010-03-03
?Adventure 4 1,089 18 (3.61)  2010-03-03
?the standoff 467 9 (3.67)  2010-03-03
?alley children 529 11 (3.91)  2010-03-05
?Steven Seagal isn't impressed 9,858 181 (4.17)  2010-03-05
?Daunting Steps 227 7 (3.00)  2010-03-05
?Cruel and Unusual 6,207 163 (4.24)  2010-03-09
?DancehallTMND 464 10 (3.80)  2010-03-12
?FUCK OUT MY FACE 493 5 (2.60)  2010-03-18
?16, no dither 792 18 (3.94)  2010-03-20
?say hi to my girlfriend 993 16 (3.81)  2010-03-21
?TT 623 16 (3.88)  2010-03-23
?jimmm thinks about his next five 687 20 (3.80)  2010-03-24
?THE TELEKINETIC MAN 293 18 (3.50)  2010-03-25
?. 128 7 (2.71)  2010-03-26
?1! 355 17 (3.35)  2010-03-26
?Fake crocodile takes it to the limit one more time 608 9 (3.67)  2010-03-27
?croctheme 404 4 (3.25)  2010-03-27
?crocodile site 444 6 (3.50)  2010-03-27
?CROC MAKES A 187 LOOK EASY 201 6 (3.33)  2010-03-27
?New Croc SIte 172 5 (3.40)  2010-03-27
?L 382 19 (3.63)  2010-03-27
?crocodile sIte 302 10 (3.50)  2010-03-30
?Pleasant® 358 8 (3.38)  2010-03-30
?A Lovely Ride 281 13 (3.85)  2010-03-30
?It's glorious today 294 14 (3.64)  2010-04-01
?Na - Zu 436 10 (3.70)  2010-04-01
?WHO'NOWOWOWOW 421 5 (2.60)  2010-04-03
?part of your world 218 5 (3.00)  2010-04-04
?fff 179 4 (3.50)  2010-04-04
?FIve-star webiste 1,012 16 (1.94)  2010-04-04
?Captain Haddock 1,750 28 (3.86)  2010-04-04
?, 268 9 (3.33)  2010-04-05
?indnian 435 7 (2.71)  2010-04-05
?Ricky Manning tribute sIte will be Underway soon ! 234 3 (3.67)  2010-04-06
?Epic Domain Grab 212 6 (2.17)  2010-04-06
?retirement site 167 6 (2.83)  2010-04-06
?Paul newman doesn't drive a VAN 204 4 (3.00)  2010-04-06
?Vince McMan 368 7 (2.86)  2010-04-06
?LOL 315 5 (3.00)  2010-04-06
?wut 318 4 (2.75)  2010-04-06
?www.coachcarter.ytmnd.com 343 8 (1.88)  2010-04-06
?untitled 326 7 (2.14)  2010-04-09
?ExpirimennalTYTMND 388 8 (3.38)  2010-04-09
?jioejejejoijiojiojioejiejoijeoj 424 14 (3.79)  2010-04-09
?Jake Steele catches a fly ball 369 4 (3.50)  2010-04-10
?Jake Steele forgets the milk 350 3 (3.00)  2010-04-10
?Jake Steele just found his watch 342 4 (3.25)  2010-04-10
?Jake Steele grows up a bit 460 7 (2.86)  2010-04-10
?KRA2008 388 5 (2.60)  2010-04-10
?Fuck the world 801 26 (3.88)  2010-04-16
?a sexual guy 517 10 (2.30)  2010-05-12
?well 338 4 (4.25)  2010-09-03
?gay site you can watch while thinking about stuff 1,611 15 (4.07)  2010-09-13
?site dedicated to great warchief 1,300 12 (3.58)  2010-09-16
?38388 871 8 (3.88)  2010-09-16
?watching the world buzz by 522 4 (3.50)  2010-09-16
?what now 1,473 17 (3.94)  2010-09-16